Urb Santa Maria, Puerto Rico
Current Conditions -  °F | °C
As of 2:50 PM on Wednesday 26 Nov 2014 (Local Time) from TJBQ Reporting Station
Scattered Clouds Scattered Clouds  
Wind Chill: 84°   Ceiling: Unl
Heat Index: 91°   Visibility: 10mi
Dew Point: 73°   Wind: 18mph
Humidity: 70%   Direction: 70°ENE
Pressure: 29.99"   Gusts: NA
Location:  18.0664°N, 66.9568°W
Report Text: TJBQ 261850Z 07016KT 10SM SCT025 29/23 A2999 RMK RWY08 ATIS N
Loading
Personal Weather Stations






























Interactive Weather Map New forecast layout! Learn more

10-Day Weather Forecast

Advertisements
Track Severe Weather on mobile